Time;durP1;ratioP1;P1;durP2;ratioP2;P2;SDS_P1;SDS_P2;PMS_P1;PMS_P2;Temp;Humidity;BMP_temperature;BMP_pressure;BME280_temperature;BME280_humidity;BME280_pressure;Samples;Min_cycle;Max_cycle;Signal;HPM_P1;HPM_P2
2024/02/19 00:00:56;;;;;;;6.95;5.55;;;;;;;8.16;88.74;101458.50;2525030;28;20050;-82
2024/02/19 00:02:10;;;;;;;5.55;5.05;;;;;;;8.18;88.98;101450.69;2520037;28;20082;-80
2024/02/19 00:03:24;;;;;;;9.10;5.75;;;;;;;8.17;88.85;101455.03;2521158;28;20050;-81
2024/02/19 00:04:38;;;;;;;6.60;5.43;;;;;;;8.19;88.76;101448.13;2523509;28;20066;-82
2024/02/19 00:05:52;;;;;;;8.05;5.63;;;;;;;8.18;88.90;101451.56;2518075;28;20118;-82
2024/02/19 00:07:06;;;;;;;10.05;4.45;;;;;;;8.19;88.94;101453.34;2516971;28;20057;-80
2024/02/19 00:08:21;;;;;;;6.55;5.75;;;;;;;8.19;88.82;101453.34;2519535;28;20051;-81
2024/02/19 00:09:35;;;;;;;6.38;5.20;;;;;;;8.20;88.87;101464.59;2524272;28;20046;-81
2024/02/19 00:10:48;;;;;;;9.65;5.88;;;;;;;8.19;88.67;101455.94;2517295;28;20416;-82
2024/02/19 00:12:03;;;;;;;8.05;7.15;;;;;;;8.20;88.76;101446.41;2517215;28;20077;-81
2024/02/19 00:13:18;;;;;;;6.05;5.07;;;;;;;8.20;88.92;101452.47;2525274;28;20049;-82
2024/02/19 00:14:33;;;;;;;6.72;5.20;;;;;;;8.20;88.95;101446.41;2517503;28;20051;-81
2024/02/19 00:15:46;;;;;;;7.75;5.70;;;;;;;8.20;88.63;101449.88;2522674;28;20064;-81
2024/02/19 00:17:01;;;;;;;9.20;6.75;;;;;;;8.20;88.85;101454.19;2528322;28;20080;-81
2024/02/19 00:18:14;;;;;;;6.22;5.10;;;;;;;8.19;88.80;101449.88;2519632;28;20057;-81
2024/02/19 00:19:29;;;;;;;6.30;5.70;;;;;;;8.20;88.76;101462.00;2522308;28;20065;-81
2024/02/19 00:20:42;;;;;;;5.82;5.30;;;;;;;8.19;88.90;101448.13;2528499;28;20084;-81
2024/02/19 00:21:56;;;;;;;6.72;5.63;;;;;;;8.19;88.60;101448.13;2522954;28;20058;-80
2024/02/19 00:23:10;;;;;;;6.80;6.10;;;;;;;8.19;88.68;101453.34;2527030;28;20053;-81
2024/02/19 00:24:24;;;;;;;6.50;5.07;;;;;;;8.20;88.70;101449.00;2518627;28;20098;-81
2024/02/19 00:25:38;;;;;;;6.47;5.32;;;;;;;8.19;88.94;101442.94;2518959;28;20057;-81
2024/02/19 00:26:52;;;;;;;8.60;5.90;;;;;;;8.20;88.75;101444.66;2518466;28;20077;-81
2024/02/19 00:28:07;;;;;;;8.05;5.38;;;;;;;8.20;88.67;101444.66;2518046;28;20117;-81
2024/02/19 00:29:23;;;;;;;7.05;5.22;;;;;;;8.22;88.91;101452.50;2528567;28;20049;-81
2024/02/19 00:30:37;;;;;;;5.70;4.63;;;;;;;8.21;88.89;101456.84;2526538;28;20046;-82
2024/02/19 00:31:51;;;;;;;7.05;4.78;;;;;;;8.22;88.63;101449.91;2526604;28;20078;-81
2024/02/19 00:33:05;;;;;;;7.90;5.78;;;;;;;8.22;88.83;101455.09;2522813;28;20088;-81
2024/02/19 00:34:19;;;;;;;7.47;5.43;;;;;;;8.22;88.81;101455.97;2520298;28;20046;-81
2024/02/19 00:35:33;;;;;;;7.40;5.72;;;;;;;8.22;88.69;101453.38;2523764;28;20042;-81
2024/02/19 00:36:47;;;;;;;7.97;5.95;;;;;;;8.24;88.80;101456.00;2525913;28;20070;-81
2024/02/19 00:38:01;;;;;;;6.30;5.05;;;;;;;8.23;88.52;101446.44;2528289;28;20046;-82
2024/02/19 00:39:15;;;;;;;6.40;5.43;;;;;;;8.23;88.61;101455.09;2522118;28;20129;-80
2024/02/19 00:40:29;;;;;;;9.18;5.30;;;;;;;8.23;88.65;101449.03;2526741;28;20053;-82
2024/02/19 00:41:43;;;;;;;6.75;5.30;;;;;;;8.23;88.69;101447.31;2520513;28;20508;-80
2024/02/19 00:42:57;;;;;;;6.03;5.43;;;;;;;8.23;88.74;101455.09;2521032;28;20061;-81
2024/02/19 00:44:12;;;;;;;6.80;5.68;;;;;;;8.24;88.69;101445.59;2520627;28;20102;-81
2024/02/19 00:45:27;;;;;;;6.68;5.18;;;;;;;8.23;88.58;101449.91;2528278;28;20100;-82
2024/02/19 00:46:41;;;;;;;8.77;6.53;;;;;;;8.24;88.81;101440.41;2523262;28;20034;-81
2024/02/19 00:47:55;;;;;;;10.25;5.95;;;;;;;8.23;88.74;101444.72;2525855;28;20038;-80
2024/02/19 00:49:09;;;;;;;8.48;5.57;;;;;;;8.24;88.69;101436.06;2532376;28;20072;-81
2024/02/19 00:50:23;;;;;;;7.10;5.95;;;;;;;8.26;88.49;101438.69;2523514;28;20046;-81
2024/02/19 00:51:37;;;;;;;7.15;6.25;;;;;;;8.25;88.64;101437.81;2526839;28;20085;-81
2024/02/19 00:52:51;;;;;;;8.13;6.15;;;;;;;8.25;88.63;101440.41;2520604;28;20043;-81
2024/02/19 00:54:05;;;;;;;8.43;5.18;;;;;;;8.26;88.73;101439.56;2528607;28;20068;-82
2024/02/19 00:55:20;;;;;;;5.78;5.18;;;;;;;8.25;88.66;101427.41;2530235;28;20050;-81
2024/02/19 00:56:34;;;;;;;7.07;5.40;;;;;;;8.26;88.66;101413.56;2524485;28;20043;-81
2024/02/19 00:57:48;;;;;;;7.15;5.85;;;;;;;8.26;88.62;101423.97;2519820;28;20061;-81
2024/02/19 00:59:02;;;;;;;11.45;6.28;;;;;;;8.26;88.59;101431.78;2517822;28;20110;-81
2024/02/19 01:00:16;;;;;;;10.98;6.93;;;;;;;8.27;88.54;101432.63;2517148;28;20042;-81
2024/02/19 01:01:32;;;;;;;7.97;6.43;;;;;;;8.26;88.93;101426.56;2519078;28;20439;-81
2024/02/19 01:02:45;;;;;;;7.10;6.40;;;;;;;8.28;88.55;101430.03;2523448;28;20578;-80
2024/02/19 01:04:00;;;;;;;7.70;6.53;;;;;;;8.29;88.51;101428.34;2521679;28;20101;-81
2024/02/19 01:05:14;;;;;;;7.95;6.57;;;;;;;8.29;88.66;101433.53;2519833;28;20061;-81
2024/02/19 01:06:28;;;;;;;7.93;6.57;;;;;;;8.30;88.66;101424.88;2521465;28;20432;-82
2024/02/19 01:07:41;;;;;;;9.48;6.75;;;;;;;8.30;88.60;101430.94;2523856;28;20092;-81
2024/02/19 01:08:57;;;;;;;9.13;6.97;;;;;;;8.30;88.68;101430.06;2518604;28;20050;-81
2024/02/19 01:10:10;;;;;;;7.60;6.50;;;;;;;8.31;88.59;101426.59;2519064;28;20054;-81
2024/02/19 01:11:24;;;;;;;9.60;7.95;;;;;;;8.31;88.55;101421.41;2520068;28;20102;-81
2024/02/19 01:12:38;;;;;;;9.23;7.22;;;;;;;8.32;88.51;101424.91;2525061;28;20038;-82
2024/02/19 01:13:52;;;;;;;11.90;6.90;;;;;;;8.30;88.62;101417.06;2524698;28;20546;-82
2024/02/19 01:15:07;;;;;;;9.38;6.60;;;;;;;8.30;88.69;101430.94;2521983;28;20057;-81
2024/02/19 01:16:22;;;;;;;8.10;6.88;;;;;;;8.32;88.67;101430.09;2520442;28;20043;-82
2024/02/19 01:17:37;;;;;;;9.90;7.30;;;;;;;8.31;88.70;101421.41;2526258;28;20073;-82
2024/02/19 01:18:52;;;;;;;9.00;6.82;;;;;;;8.30;88.68;101436.16;2519780;28;20077;-81
2024/02/19 01:20:07;;;;;;;7.82;6.55;;;;;;;8.31;88.69;101442.22;2519284;28;20130;-81
2024/02/19 01:21:21;;;;;;;7.70;6.97;;;;;;;8.34;88.59;101438.78;2520454;28;20316;-82
2024/02/19 01:22:35;;;;;;;7.60;6.75;;;;;;;8.34;88.51;101443.97;2525363;28;20050;-81
2024/02/19 01:23:50;;;;;;;11.65;7.35;;;;;;;8.34;88.52;101438.78;2517944;28;20134;-82
2024/02/19 01:25:03;;;;;;;8.25;7.25;;;;;;;8.36;88.70;101442.28;2525743;28;20053;-80
2024/02/19 01:26:19;;;;;;;11.82;7.63;;;;;;;8.37;88.67;101437.09;2528648;28;20060;-81
2024/02/19 01:27:33;;;;;;;7.05;6.10;;;;;;;8.38;88.65;101440.56;2524360;28;20046;-80
2024/02/19 01:28:47;;;;;;;8.07;6.95;;;;;;;8.38;88.42;101440.56;2518781;28;20162;-81
2024/02/19 01:30:01;;;;;;;8.77;6.05;;;;;;;8.36;88.55;101435.34;2525186;28;20597;-82
2024/02/19 01:31:16;;;;;;;9.13;5.85;;;;;;;8.38;88.46;101432.78;2520128;28;20077;-82
2024/02/19 01:32:29;;;;;;;10.40;7.00;;;;;;;8.37;88.70;101431.03;2518501;28;20101;-82
2024/02/19 01:33:45;;;;;;;11.38;6.90;;;;;;;8.37;88.36;101431.03;2519571;28;20050;-82
2024/02/19 01:34:59;;;;;;;8.40;6.00;;;;;;;8.38;88.67;101443.19;2519418;28;20544;-82
2024/02/19 01:36:13;;;;;;;9.27;7.10;;;;;;;8.39;88.69;101440.66;2518215;28;20066;-81
2024/02/19 01:37:27;;;;;;;8.18;6.40;;;;;;;8.41;88.67;101440.66;2526790;28;20057;-82
2024/02/19 01:38:42;;;;;;;7.22;6.30;;;;;;;8.40;88.41;101439.78;2518376;28;20118;-82
2024/02/19 01:39:55;;;;;;;6.68;5.60;;;;;;;8.42;88.49;101447.63;2520551;28;20062;-81
2024/02/19 01:41:10;;;;;;;7.00;5.47;;;;;;;8.42;88.57;101445.00;2521054;28;20504;-80
2024/02/19 01:42:24;;;;;;;8.20;5.80;;;;;;;8.42;88.55;101447.63;2519937;28;20523;-81
2024/02/19 01:43:38;;;;;;;10.27;6.55;;;;;;;8.43;88.36;101449.34;2523700;28;20038;-81
2024/02/19 01:44:52;;;;;;;10.68;7.15;;;;;;;8.44;88.65;101451.97;2525197;28;20468;-81
2024/02/19 01:46:06;;;;;;;8.02;6.32;;;;;;;8.44;88.43;101449.38;2527150;28;20077;-81
2024/02/19 01:47:20;;;;;;;7.55;6.10;;;;;;;8.46;88.42;101451.97;2527767;28;20085;-80
2024/02/19 01:48:36;;;;;;;11.85;7.07;;;;;;;8.47;88.39;101453.75;2520532;28;20511;-81
2024/02/19 01:49:51;;;;;;;11.23;7.00;;;;;;;8.46;88.60;101450.25;2527220;28;20049;-80
2024/02/19 01:51:06;;;;;;;7.28;5.75;;;;;;;8.47;88.24;101446.81;2519837;28;20056;-80
2024/02/19 01:52:19;;;;;;;7.25;6.43;;;;;;;8.47;88.54;101452.00;2517154;28;20046;-80
2024/02/19 01:53:33;;;;;;;7.45;6.28;;;;;;;8.47;88.53;101452.00;2519915;28;20093;-80
2024/02/19 01:54:48;;;;;;;10.65;6.63;;;;;;;8.47;88.33;101452.00;2523152;28;20046;-81
2024/02/19 01:56:02;;;;;;;7.10;5.88;;;;;;;8.49;88.51;101454.63;2524245;28;20046;-81
2024/02/19 01:57:16;;;;;;;7.38;5.75;;;;;;;8.49;88.40;101447.72;2527994;28;20045;-81
2024/02/19 01:58:31;;;;;;;7.90;6.00;;;;;;;8.49;88.42;101442.50;2529433;28;20073;-81
2024/02/19 01:59:45;;;;;;;7.55;6.05;;;;;;;8.50;88.37;101443.38;2541165;22;20668;-81
2024/02/19 02:00:59;;;;;;;8.20;5.75;;;;;;;8.51;88.46;101445.13;2544652;28;20104;-80
2024/02/19 02:02:13;;;;;;;7.57;6.78;;;;;;;8.50;88.21;101436.44;2545428;28;20425;-81
2024/02/19 02:03:28;;;;;;;12.63;6.82;;;;;;;8.52;88.30;101437.34;2545570;28;20045;-80
2024/02/19 02:04:42;;;;;;;7.65;6.20;;;;;;;8.52;88.55;101442.53;2544738;28;20049;-81
2024/02/19 02:05:58;;;;;;;8.15;7.07;;;;;;;8.52;88.26;101442.53;2545148;28;20071;-80
2024/02/19 02:07:11;;;;;;;8.98;6.35;;;;;;;8.52;88.47;101447.75;2545559;28;20048;-80
2024/02/19 02:08:26;;;;;;;11.35;6.05;;;;;;;8.53;88.24;101448.63;2544445;28;20047;-80
2024/02/19 02:09:39;;;;;;;7.72;5.50;;;;;;;8.54;88.26;101445.16;2545438;28;20037;-81
2024/02/19 02:10:54;;;;;;;6.65;5.95;;;;;;;8.54;88.49;101447.75;2550721;28;20140;-80
2024/02/19 02:12:08;;;;;;;8.35;5.47;;;;;;;8.55;88.43;101452.13;2547267;28;20468;-80
2024/02/19 02:13:22;;;;;;;7.32;5.22;;;;;;;8.56;88.18;101443.44;2553873;28;20044;-80
2024/02/19 02:14:36;;;;;;;7.43;6.68;;;;;;;8.57;88.26;101444.31;2544899;28;20044;-81
2024/02/19 02:15:50;;;;;;;7.35;5.57;;;;;;;8.57;88.27;101455.63;2549553;28;20048;-80
2024/02/19 02:17:04;;;;;;;7.78;5.68;;;;;;;8.58;88.44;101457.34;2548150;28;20052;-79
2024/02/19 02:18:19;;;;;;;8.77;6.63;;;;;;;8.58;88.42;101452.16;2548340;28;20041;-80
2024/02/19 02:19:32;;;;;;;8.40;5.88;;;;;;;8.58;88.28;101453.88;2544310;28;20080;-80
2024/02/19 02:20:47;;;;;;;5.97;5.05;;;;;;;8.58;88.46;101449.53;2545156;28;20052;-77
2024/02/19 02:22:02;;;;;;;6.72;6.03;;;;;;;8.59;88.23;101448.69;2545326;28;20098;-78
2024/02/19 02:23:17;;;;;;;7.10;5.63;;;;;;;8.59;88.19;101445.22;2544393;28;20045;-78
2024/02/19 02:24:30;;;;;;;10.95;5.72;;;;;;;8.59;88.14;101448.69;2552338;28;20423;-79
2024/02/19 02:25:45;;;;;;;6.20;5.60;;;;;;;8.58;88.21;101433.06;2548920;28;20048;-78
2024/02/19 02:26:59;;;;;;;6.45;5.85;;;;;;;8.59;88.10;101437.41;2549784;28;20053;-79
2024/02/19 02:28:14;;;;;;;6.63;5.43;;;;;;;8.58;88.23;101433.94;2544891;28;20108;-79
2024/02/19 02:29:27;;;;;;;5.15;4.25;;;;;;;8.59;88.18;101440.00;2554157;28;20052;-79
2024/02/19 02:30:42;;;;;;;7.25;6.07;;;;;;;8.59;88.21;101434.81;2548716;28;20553;-79
2024/02/19 02:31:55;;;;;;;7.32;5.72;;;;;;;8.58;88.03;101439.13;2550383;28;20044;-78
2024/02/19 02:33:09;;;;;;;7.70;5.82;;;;;;;8.60;88.00;101440.03;2552623;28;20400;-78
2024/02/19 02:34:23;;;;;;;7.07;5.63;;;;;;;8.59;88.09;101440.88;2555146;28;20045;-78
2024/02/19 02:35:37;;;;;;;6.82;5.93;;;;;;;8.61;87.99;101435.69;2547952;28;20044;-79
2024/02/19 02:36:51;;;;;;;8.68;6.50;;;;;;;8.61;87.95;101436.56;2556008;28;20048;-81
2024/02/19 02:38:06;;;;;;;7.07;5.53;;;;;;;8.61;88.14;101431.38;2548823;28;20045;-81
2024/02/19 02:39:19;;;;;;;11.70;6.35;;;;;;;8.61;88.03;101436.56;2545292;28;20052;-81
2024/02/19 02:40:34;;;;;;;11.43;6.85;;;;;;;8.61;88.00;101444.38;2546824;28;20064;-81
2024/02/19 02:41:48;;;;;;;6.93;6.05;;;;;;;8.61;87.98;101438.31;2550969;28;20131;-78
2024/02/19 02:43:03;;;;;;;7.10;6.30;;;;;;;8.61;88.18;101441.78;2545130;28;20049;-81
2024/02/19 02:44:17;;;;;;;7.85;6.15;;;;;;;8.60;87.93;101434.84;2553111;28;20412;-80
2024/02/19 02:45:31;;;;;;;13.55;5.78;;;;;;;8.60;87.96;101431.38;2545035;28;20055;-80
2024/02/19 02:46:45;;;;;;;7.32;5.65;;;;;;;8.58;87.99;101431.34;2549417;28;20059;-81
2024/02/19 02:47:59;;;;;;;8.05;5.50;;;;;;;8.60;88.01;101423.56;2549198;28;20524;-81
2024/02/19 02:49:13;;;;;;;7.60;4.60;;;;;;;8.59;88.06;101430.47;2544942;28;20055;-81
2024/02/19 02:50:27;;;;;;;9.05;5.82;;;;;;;8.60;87.85;101427.03;2554155;28;20592;-80
2024/02/19 02:51:40;;;;;;;7.03;6.32;;;;;;;8.59;87.79;101433.06;2544826;28;20414;-80
2024/02/19 02:52:55;;;;;;;10.55;5.85;;;;;;;8.58;87.95;101433.94;2550302;28;20080;-81
2024/02/19 02:54:09;;;;;;;7.95;5.47;;;;;;;8.57;87.76;101424.41;2547826;28;20041;-80
2024/02/19 02:55:23;;;;;;;6.72;5.50;;;;;;;8.57;87.87;101434.81;2553863;28;20049;-79
2024/02/19 02:56:37;;;;;;;9.43;5.60;;;;;;;8.57;87.73;101428.69;2544602;28;20059;-80
2024/02/19 02:57:51;;;;;;;7.22;5.40;;;;;;;8.56;87.82;101433.03;2545413;28;20060;-80
2024/02/19 02:59:07;;;;;;;7.50;5.60;;;;;;;8.57;87.98;101431.31;2551603;28;20131;-80
2024/02/19 03:00:20;;;;;;;11.63;6.70;;;;;;;8.55;87.96;101436.50;2546510;28;20071;-79
2024/02/19 03:01:35;;;;;;;13.68;6.13;;;;;;;8.55;87.90;101428.69;2552678;28;20106;-80
2024/02/19 03:02:49;;;;;;;6.97;5.93;;;;;;;8.55;87.87;101431.31;2549646;28;20135;-79
2024/02/19 03:04:03;;;;;;;6.95;5.70;;;;;;;8.55;87.80;101431.31;2548366;28;20444;-80
2024/02/19 03:05:17;;;;;;;6.97;5.65;;;;;;;8.55;87.77;101435.63;2545568;28;20052;-81
2024/02/19 03:06:31;;;;;;;7.22;5.85;;;;;;;8.55;87.76;101428.69;2547323;28;20485;-79
2024/02/19 03:07:44;;;;;;;7.10;5.88;;;;;;;8.55;87.95;101439.09;2551453;28;20049;-80
2024/02/19 03:08:59;;;;;;;10.27;5.90;;;;;;;8.56;87.80;101434.78;2545529;28;20053;-80
2024/02/19 03:10:13;;;;;;;8.55;6.72;;;;;;;8.57;88.10;101444.31;2544863;28;20049;-80
2024/02/19 03:11:27;;;;;;;7.22;6.47;;;;;;;8.57;87.92;101439.09;2545534;28;20075;-80
2024/02/19 03:12:40;;;;;;;10.27;6.72;;;;;;;8.57;87.96;101445.22;2545199;28;20049;-80
2024/02/19 03:13:55;;;;;;;8.35;5.47;;;;;;;8.58;88.04;101446.94;2545443;28;20045;-80
2024/02/19 03:15:10;;;;;;;5.68;5.07;;;;;;;8.57;87.99;101436.50;2552501;28;20056;-79
2024/02/19 03:16:24;;;;;;;8.10;6.68;;;;;;;8.57;88.03;101444.31;2547081;28;20068;-80
2024/02/19 03:17:38;;;;;;;9.90;6.32;;;;;;;8.56;88.00;101448.66;2552821;28;20061;-80
2024/02/19 03:18:53;;;;;;;6.50;5.82;;;;;;;8.56;88.00;101433.03;2545856;28;20128;-81
2024/02/19 03:20:12;;;;;;;11.73;6.93;;;;;;;8.56;88.04;101437.38;2550851;28;20131;-81
2024/02/19 03:21:28;;;;;;;8.73;6.53;;;;;;;8.55;87.99;101441.72;2546006;28;20478;-80
2024/02/19 03:22:41;;;;;;;9.85;6.00;;;;;;;8.55;88.06;101428.69;2544944;28;20041;-80
2024/02/19 03:23:56;;;;;;;8.88;7.15;;;;;;;8.57;88.11;101441.72;2544473;28;20096;-80
2024/02/19 03:25:09;;;;;;;9.63;7.22;;;;;;;8.58;88.09;101452.16;2544961;28;20600;-79
2024/02/19 03:26:25;;;;;;;27.92;6.35;;;;;;;8.59;87.98;101446.06;2544794;28;20049;-80
2024/02/19 03:27:40;;;;;;;10.52;7.28;;;;;;;8.60;88.04;101444.38;2544502;28;20053;-80
2024/02/19 03:28:54;;;;;;;9.55;6.18;;;;;;;8.60;88.02;101450.44;2544582;28;20049;-80
2024/02/19 03:30:10;;;;;;;9.88;7.53;;;;;;;8.59;87.90;101437.41;2545310;28;20053;-80
2024/02/19 03:31:24;;;;;;;9.90;7.28;;;;;;;8.60;87.94;101446.97;2545328;28;20053;-79
2024/02/19 03:32:38;;;;;;;8.95;5.82;;;;;;;8.58;87.96;101446.06;2543757;28;20033;-79
2024/02/19 03:33:52;;;;;;;11.13;7.28;;;;;;;8.59;87.98;101443.47;2549480;28;20045;-80
2024/02/19 03:35:06;;;;;;;9.60;8.30;;;;;;;8.59;87.94;101453.88;2548265;28;20636;-80
2024/02/19 03:36:20;;;;;;;8.45;6.78;;;;;;;8.60;87.81;101449.56;2552658;28;20045;-80
2024/02/19 03:37:34;;;;;;;10.80;8.27;;;;;;;8.59;88.09;101450.41;2553722;28;20050;-80
2024/02/19 03:38:49;;;;;;;9.30;8.15;;;;;;;8.59;88.05;101453.00;2549850;28;20044;-80
2024/02/19 03:40:06;;;;;;;9.30;7.32;;;;;;;8.57;87.89;101447.81;2548530;28;20540;-80
2024/02/19 03:41:21;;;;;;;10.20;7.18;;;;;;;8.56;87.89;101446.03;2553337;28;20052;-81
2024/02/19 03:42:34;;;;;;;8.30;7.07;;;;;;;8.54;87.82;101447.75;2547769;28;20060;-80
2024/02/19 03:43:49;;;;;;;10.40;6.88;;;;;;;8.52;87.80;101447.75;2550309;28;20053;-80
2024/02/19 03:45:04;;;;;;;7.75;6.85;;;;;;;8.51;87.73;101460.72;2545425;28;20048;-80
2024/02/19 03:46:20;;;;;;;8.90;6.07;;;;;;;8.50;87.75;101453.78;2552969;28;20056;-79
2024/02/19 03:47:34;;;;;;;10.00;7.38;;;;;;;8.47;87.89;101454.63;2553074;28;20083;-80
2024/02/19 03:48:49;;;;;;;9.82;7.05;;;;;;;8.45;87.91;101451.13;2549299;28;20540;-80
2024/02/19 03:50:03;;;;;;;9.00;7.10;;;;;;;8.44;87.95;101454.59;2549633;28;20083;-79
2024/02/19 03:51:17;;;;;;;9.05;6.95;;;;;;;8.42;87.74;101460.63;2545515;28;20053;-79
2024/02/19 03:52:31;;;;;;;9.70;5.88;;;;;;;8.39;87.61;101460.53;2554721;28;20519;-80
2024/02/19 03:53:45;;;;;;;9.73;7.22;;;;;;;8.37;87.75;101455.31;2552086;28;20045;-81
2024/02/19 03:54:59;;;;;;;9.55;6.50;;;;;;;8.35;87.67;101453.53;2551228;28;20052;-80
2024/02/19 03:56:13;;;;;;;12.18;7.07;;;;;;;8.32;87.54;101456.13;2547602;28;20037;-80
2024/02/19 03:57:27;;;;;;;9.57;7.45;;;;;;;8.29;87.73;101465.63;2553936;28;20489;-80
2024/02/19 03:58:42;;;;;;;8.55;7.15;;;;;;;8.27;87.64;101451.72;2548232;28;20052;-81
2024/02/19 03:59:55;;;;;;;7.63;6.82;;;;;;;8.25;87.56;101452.53;2550045;28;20045;-82
2024/02/19 04:01:09;;;;;;;13.70;8.38;;;;;;;8.21;87.73;101454.25;2545304;28;20067;-81
2024/02/19 04:02:24;;;;;;;8.85;7.18;;;;;;;8.19;87.80;101455.94;2545313;28;20056;-81
2024/02/19 04:03:39;;;;;;;10.15;6.93;;;;;;;8.18;87.68;101467.16;2555004;28;20097;-80
2024/02/19 04:04:52;;;;;;;9.57;7.15;;;;;;;8.15;87.62;101461.06;2552009;28;20136;-80
2024/02/19 04:06:07;;;;;;;12.65;7.22;;;;;;;8.11;87.70;101454.97;2548482;28;20540;-80
2024/02/19 04:07:20;;;;;;;14.15;7.80;;;;;;;8.11;87.66;101451.50;2555847;28;20094;-80
2024/02/19 04:08:35;;;;;;;12.63;8.98;;;;;;;8.09;87.87;101454.94;2540778;28;20109;-81
2024/02/19 04:09:48;;;;;;;11.32;6.38;;;;;;;8.07;87.79;101455.75;2553783;28;20053;-81
2024/02/19 04:11:03;;;;;;;17.13;7.57;;;;;;;8.06;87.63;101459.22;2553549;28;20048;-81
2024/02/19 04:12:16;;;;;;;11.90;7.55;;;;;;;8.05;87.67;101454.84;2549163;28;20074;-81
2024/02/19 04:13:30;;;;;;;9.38;6.75;;;;;;;8.03;87.78;101459.19;2555713;28;20843;-81
2024/02/19 04:14:44;;;;;;;9.70;6.55;;;;;;;8.01;87.75;101464.34;2547078;28;20052;-80
2024/02/19 04:15:59;;;;;;;10.30;7.80;;;;;;;7.99;87.78;101462.56;2551768;28;20051;-80
2024/02/19 04:17:12;;;;;;;11.40;8.30;;;;;;;7.97;87.81;101469.47;2550213;28;20090;-80
2024/02/19 04:18:28;;;;;;;11.75;8.27;;;;;;;7.95;87.75;101463.38;2547105;28;20049;-80
2024/02/19 04:19:41;;;;;;;11.65;6.93;;;;;;;7.92;87.74;101473.72;2546275;28;21463;-81
2024/02/19 04:20:55;;;;;;;18.30;8.15;;;;;;;7.91;87.89;101472.84;2546863;28;20049;-81
2024/02/19 04:22:09;;;;;;;11.50;8.68;;;;;;;7.90;87.66;101481.50;2547190;28;20045;-80
2024/02/19 04:23:23;;;;;;;13.27;8.45;;;;;;;7.89;87.90;101478.88;2547479;28;20040;-80
2024/02/19 04:24:37;;;;;;;9.98;6.90;;;;;;;7.88;87.93;101479.75;2554288;28;20420;-80
2024/02/19 04:25:52;;;;;;;10.10;7.55;;;;;;;7.89;88.07;101484.06;2550431;28;20083;-81
2024/02/19 04:27:05;;;;;;;18.83;8.05;;;;;;;7.89;88.14;101486.66;2550472;28;20063;-79
2024/02/19 04:28:20;;;;;;;12.27;7.95;;;;;;;7.91;88.27;101487.56;2545531;28;20045;-79
2024/02/19 04:29:33;;;;;;;11.52;7.93;;;;;;;7.93;88.37;101491.09;2547946;28;20044;-79
2024/02/19 04:30:48;;;;;;;9.65;7.43;;;;;;;7.93;88.33;101489.34;2553021;28;20053;-80
2024/02/19 04:32:01;;;;;;;12.13;8.80;;;;;;;7.94;88.40;101493.69;2551693;28;20044;-79
2024/02/19 04:33:15;;;;;;;15.00;9.52;;;;;;;7.97;88.32;101495.47;2549023;28;20057;-79
2024/02/19 04:34:30;;;;;;;15.32;8.68;;;;;;;7.99;88.37;101504.16;2546967;28;20049;-79
2024/02/19 04:35:45;;;;;;;13.40;9.52;;;;;;;8.02;88.30;101506.81;2545059;28;20048;-80
2024/02/19 04:36:59;;;;;;;10.77;7.68;;;;;;;8.04;88.59;101503.38;2551502;28;20044;-79
2024/02/19 04:38:13;;;;;;;11.70;8.23;;;;;;;8.06;88.40;101503.41;2549181;28;20041;-80
2024/02/19 04:39:27;;;;;;;12.45;7.72;;;;;;;8.09;88.68;101513.84;2546791;28;20053;-80
2024/02/19 04:40:40;;;;;;;13.82;8.48;;;;;;;8.11;88.79;101514.75;2546342;28;20544;-80
2024/02/19 04:41:55;;;;;;;13.20;8.52;;;;;;;8.12;88.54;101513.91;2548076;28;20036;-81
2024/02/19 04:43:08;;;;;;;14.98;9.63;;;;;;;8.14;88.58;101507.00;2553349;28;20055;-79
2024/02/19 04:44:23;;;;;;;12.82;8.55;;;;;;;8.16;88.71;101514.81;2549423;28;20051;-79
2024/02/19 04:45:36;;;;;;;12.23;7.78;;;;;;;8.19;88.50;101514.88;2547582;28;20049;-79
2024/02/19 04:46:50;;;;;;;13.10;9.38;;;;;;;8.19;88.56;101512.28;2547569;28;20072;-79
2024/02/19 04:48:04;;;;;;;14.65;10.05;;;;;;;8.20;88.75;101516.63;2547457;28;20045;-81
2024/02/19 04:49:19;;;;;;;12.15;8.75;;;;;;;8.21;88.68;101515.75;2556541;28;20104;-78
2024/02/19 04:50:34;;;;;;;14.05;9.35;;;;;;;8.22;88.56;101510.59;2550568;28;20063;-81
2024/02/19 04:51:48;;;;;;;14.15;9.52;;;;;;;8.23;88.54;101511.44;2554906;28;20045;-80
2024/02/19 04:53:02;;;;;;;12.63;8.65;;;;;;;8.25;88.62;101514.97;2548524;28;20045;-81
2024/02/19 04:54:16;;;;;;;16.85;9.05;;;;;;;8.24;88.77;101519.28;2547574;28;20037;-81
2024/02/19 04:55:30;;;;;;;14.00;8.77;;;;;;;8.25;88.62;101518.41;2556757;28;20049;-80
2024/02/19 04:56:44;;;;;;;11.93;9.55;;;;;;;8.26;88.51;101517.59;2555012;28;20105;-82
2024/02/19 04:57:57;;;;;;;17.88;10.90;;;;;;;8.27;88.66;101528.84;2547730;28;20076;-81
2024/02/19 04:59:12;;;;;;;14.35;9.55;;;;;;;8.27;88.54;101527.13;2547819;28;20055;-81
2024/02/19 05:00:26;;;;;;;14.85;7.85;;;;;;;8.27;88.74;101521.94;2546810;28;20052;-80
2024/02/19 05:01:40;;;;;;;13.15;9.20;;;;;;;8.29;88.77;101521.97;2548005;28;20100;-81
2024/02/19 05:02:53;;;;;;;15.02;9.40;;;;;;;8.29;88.61;101520.22;2547933;28;20052;-80
2024/02/19 05:04:08;;;;;;;15.30;8.30;;;;;;;8.31;88.68;101525.44;2546782;28;20680;-80
2024/02/19 05:05:21;;;;;;;10.75;7.47;;;;;;;8.33;88.62;101525.47;2547661;28;20044;-80
2024/02/19 05:06:37;;;;;;;13.07;8.73;;;;;;;8.33;88.43;101518.53;2548626;28;20051;-81
2024/02/19 05:07:51;;;;;;;15.02;9.10;;;;;;;8.34;88.68;101525.50;2550977;28;20048;-81
2024/02/19 05:09:05;;;;;;;11.48;7.10;;;;;;;8.34;88.70;101530.72;2552368;28;20558;-80
2024/02/19 05:10:20;;;;;;;12.73;7.55;;;;;;;8.35;88.67;101534.19;2548095;28;20104;-81
2024/02/19 05:11:35;;;;;;;15.38;7.80;;;;;;;8.36;88.67;101541.97;2546570;28;20045;-79
2024/02/19 05:12:48;;;;;;;12.73;7.88;;;;;;;8.37;88.65;101535.09;2550229;28;20060;-80
2024/02/19 05:14:02;;;;;;;12.10;8.00;;;;;;;8.37;88.59;101529.88;2551158;28;20063;-79
2024/02/19 05:15:16;;;;;;;14.20;8.90;;;;;;;8.37;88.65;101537.69;2553453;28;20677;-79
2024/02/19 05:16:30;;;;;;;12.50;8.80;;;;;;;8.37;88.68;101535.94;2546950;28;20045;-81
2024/02/19 05:17:44;;;;;;;11.10;7.88;;;;;;;8.36;88.37;101544.59;2554286;28;20048;-79
2024/02/19 05:19:00;;;;;;;14.40;9.60;;;;;;;8.34;88.60;101541.13;2547150;28;20117;-80
2024/02/19 05:20:13;;;;;;;16.15;8.05;;;;;;;8.31;88.47;101543.63;2545720;28;20072;-80
2024/02/19 05:21:28;;;;;;;9.93;7.25;;;;;;;8.28;88.15;101547.06;2546327;28;20048;-79
2024/02/19 05:22:43;;;;;;;9.52;8.00;;;;;;;8.27;88.44;101550.53;2546149;28;20440;-79
2024/02/19 05:23:57;;;;;;;10.93;7.28;;;;;;;8.27;88.16;101549.66;2546568;28;20049;-81
2024/02/19 05:25:11;;;;;;;12.90;7.90;;;;;;;8.26;88.22;101548.81;2546139;28;20590;-80
2024/02/19 05:26:26;;;;;;;12.82;8.50;;;;;;;8.27;88.64;101550.53;2546329;28;20041;-80
2024/02/19 05:27:40;;;;;;;9.15;7.05;;;;;;;8.27;88.44;101549.66;2546537;28;20667;-81
2024/02/19 05:28:54;;;;;;;13.98;8.18;;;;;;;8.27;88.44;101545.34;2546021;28;20041;-79
2024/02/19 05:30:08;;;;;;;14.48;7.35;;;;;;;8.28;88.39;101551.41;2545603;28;20041;-79
2024/02/19 05:31:32;;;;;;;14.43;7.35;;;;;;;8.26;88.43;101551.41;2553627;28;20443;-80
2024/02/19 05:32:45;;;;;;;12.93;6.82;;;;;;;8.24;88.22;101555.69;2538437;28;20100;-81
2024/02/19 05:34:00;;;;;;;13.43;8.20;;;;;;;8.25;88.41;101553.97;2550044;28;20040;-79
2024/02/19 05:35:14;;;;;;;12.85;7.55;;;;;;;8.23;88.48;101553.94;2549515;28;20037;-80
2024/02/19 05:36:28;;;;;;;11.93;6.57;;;;;;;8.23;88.28;101553.06;2545534;28;20124;-80
2024/02/19 05:37:43;;;;;;;11.38;6.72;;;;;;;8.20;88.33;101547.81;2554495;28;20060;-81
2024/02/19 05:38:57;;;;;;;10.45;6.43;;;;;;;8.17;88.33;101556.44;2550386;28;20071;-80
2024/02/19 05:40:11;;;;;;;10.93;6.68;;;;;;;8.18;88.39;101557.31;2550869;28;20052;-80
2024/02/19 05:41:25;;;;;;;9.80;8.55;;;;;;;8.18;88.42;101555.56;2547951;28;20417;-81
2024/02/19 05:42:40;;;;;;;14.77;6.28;;;;;;;8.18;88.48;101555.56;2547473;28;20044;-81
2024/02/19 05:43:55;;;;;;;14.07;5.97;;;;;;;8.17;88.42;101553.84;2550908;28;20040;-82
2024/02/19 05:45:10;;;;;;;9.00;5.65;;;;;;;8.19;88.40;101562.56;2555523;28;20136;-81
2024/02/19 05:46:24;;;;;;;8.23;5.35;;;;;;;8.18;88.40;101560.78;2550653;28;20045;-81
2024/02/19 05:47:37;;;;;;;11.05;6.25;;;;;;;8.18;88.30;101559.91;2547748;28;20041;-81